createdAt,value
2023-02-15T00:02:21.311Z,14.09
2023-02-15T00:07:25.748Z,14.09
2023-02-15T00:12:28.704Z,13.99
2023-02-15T00:17:31.763Z,13.95
2023-02-15T00:22:36.209Z,13.89
2023-02-15T00:27:39.157Z,13.86
2023-02-15T00:32:42.112Z,13.79
2023-02-15T00:37:46.422Z,13.81
2023-02-15T00:42:49.399Z,13.74
2023-02-15T00:47:52.354Z,13.71
2023-02-15T00:52:56.691Z,13.73
2023-02-15T00:57:59.746Z,13.77
2023-02-15T01:03:02.741Z,13.67
2023-02-15T01:08:07.298Z,13.56
2023-02-15T01:13:10.236Z,13.60
2023-02-15T01:18:13.935Z,13.62
2023-02-15T01:23:18.441Z,13.57
2023-02-15T01:28:21.408Z,13.58
2023-02-15T01:33:24.355Z,13.58
2023-02-15T01:38:28.804Z,13.55
2023-02-15T01:43:41.447Z,13.53
2023-02-15T01:48:46.519Z,13.49
2023-02-15T01:53:53.040Z,13.40
2023-02-15T01:58:59.088Z,13.38
2023-02-15T02:04:04.609Z,13.35
2023-02-15T02:09:08.982Z,13.24
2023-02-15T02:14:12.220Z,13.23
2023-02-15T02:19:34.636Z,13.20
2023-02-15T02:24:56.610Z,13.13
2023-02-15T02:30:09.160Z,13.07
2023-02-15T02:35:16.779Z,13.04
2023-02-15T02:40:23.471Z,13.00
2023-02-15T02:45:28.342Z,13.04
2023-02-15T02:50:32.970Z,12.99
2023-02-15T02:55:37.863Z,12.94
2023-02-15T03:00:41.789Z,12.91
2023-02-15T03:05:48.750Z,12.98
2023-02-15T03:10:55.512Z,12.90
2023-02-15T03:16:16.499Z,12.85
2023-02-15T03:21:24.152Z,12.84
2023-02-15T03:26:28.321Z,12.80
2023-02-15T03:31:32.618Z,12.77
2023-02-15T03:36:39.760Z,12.74
2023-02-15T03:41:47.266Z,12.69
2023-02-15T03:46:53.727Z,12.57
2023-02-15T03:51:59.156Z,12.55
2023-02-15T03:57:16.819Z,12.50
2023-02-15T04:02:23.771Z,12.45
2023-02-15T04:07:28.162Z,12.43
2023-02-15T04:12:31.037Z,12.40
2023-02-15T04:17:33.894Z,12.39
2023-02-15T04:22:55.738Z,12.34
2023-02-15T04:27:58.708Z,12.35
2023-02-15T04:33:01.576Z,12.33
2023-02-15T04:38:05.889Z,12.32
2023-02-15T04:43:08.732Z,12.31
2023-02-15T04:48:11.579Z,12.34
2023-02-15T04:53:17.642Z,12.30
2023-02-15T04:58:20.478Z,12.22
2023-02-15T05:03:23.494Z,12.17
2023-02-15T05:08:27.803Z,12.20
2023-02-15T05:13:30.627Z,12.19
2023-02-15T05:18:33.542Z,12.16
2023-02-15T05:23:37.989Z,12.16
2023-02-15T05:28:41.300Z,12.16
2023-02-15T05:33:44.661Z,12.10
2023-02-15T05:38:49.008Z,12.12
2023-02-15T05:43:51.994Z,12.08
2023-02-15T05:48:55.001Z,12.10
2023-02-15T05:53:59.351Z,12.09
2023-02-15T05:59:02.414Z,12.04
2023-02-15T06:04:05.424Z,12.06
2023-02-15T06:09:09.871Z,12.02
2023-02-15T06:14:12.837Z,12.03
2023-02-15T06:19:15.846Z,11.99
2023-02-15T06:24:20.187Z,11.98
2023-02-15T06:29:23.133Z,11.90
2023-02-15T06:34:26.026Z,11.88
2023-02-15T06:39:30.323Z,11.86
2023-02-15T06:44:33.142Z,11.83
2023-02-15T06:49:35.977Z,11.80
2023-02-15T06:54:40.282Z,11.78
2023-02-15T06:59:43.201Z,11.71
2023-02-15T07:04:46.073Z,11.70
2023-02-15T07:09:50.385Z,11.69
2023-02-15T07:14:53.263Z,11.67
2023-02-15T07:19:56.198Z,11.60
2023-02-15T07:25:00.466Z,11.61
2023-02-15T07:30:03.439Z,11.60
2023-02-15T07:35:06.476Z,11.58
2023-02-15T07:40:11.173Z,11.63
2023-02-15T07:45:14.024Z,11.57
2023-02-15T07:50:17.098Z,11.60
2023-02-15T07:55:21.431Z,11.65
2023-02-15T08:00:26.065Z,11.70
2023-02-15T08:05:30.715Z,11.69
2023-02-15T08:10:52.477Z,11.72
2023-02-15T08:15:55.388Z,11.81
2023-02-15T08:20:59.853Z,11.83
2023-02-15T08:26:05.456Z,11.81
2023-02-15T08:31:08.986Z,12.05
2023-02-15T08:36:13.205Z,12.14
2023-02-15T08:41:20.024Z,12.34
2023-02-15T08:46:23.975Z,12.55
2023-02-15T08:51:27.740Z,12.70
2023-02-15T08:56:34.442Z,12.72
2023-02-15T09:01:37.464Z,13.34
2023-02-15T09:06:40.984Z,14.27
2023-02-15T09:11:46.291Z,15.04
2023-02-15T09:16:52.029Z,15.38
2023-02-15T09:21:54.967Z,15.74
2023-02-15T09:26:59.229Z,14.72
2023-02-15T09:32:02.183Z,14.39
2023-02-15T09:37:05.106Z,14.10
2023-02-15T09:42:18.923Z,14.01
2023-02-15T09:47:31.697Z,13.95
2023-02-15T09:52:43.862Z,13.93
2023-02-15T09:57:53.706Z,13.94
2023-02-15T10:03:14.216Z,13.99
2023-02-15T10:08:28.685Z,13.98
2023-02-15T10:13:38.895Z,14.03
2023-02-15T10:18:54.128Z,14.20
2023-02-15T10:24:06.756Z,14.18
2023-02-15T10:29:12.424Z,14.30
2023-02-15T10:34:18.035Z,14.37
2023-02-15T10:39:24.097Z,14.57
2023-02-15T10:44:36.659Z,14.69
2023-02-15T10:49:49.730Z,14.94
2023-02-15T10:54:59.290Z,15.16
2023-02-15T11:00:12.158Z,15.25
2023-02-15T11:05:27.391Z,15.50
2023-02-15T11:10:32.648Z,15.98
2023-02-15T11:15:38.931Z,16.70
2023-02-15T11:20:46.444Z,18.31
2023-02-15T11:25:54.640Z,19.23
2023-02-15T11:31:01.640Z,19.60
2023-02-15T11:36:08.914Z,20.40
2023-02-15T11:41:13.999Z,20.57
2023-02-15T11:46:20.915Z,20.98
2023-02-15T11:51:26.104Z,20.92
2023-02-15T11:56:31.305Z,21.25
2023-02-15T12:01:41.484Z,21.59
2023-02-15T12:06:48.728Z,21.22
2023-02-15T12:11:52.297Z,22.44
2023-02-15T12:16:57.727Z,22.25
2023-02-15T12:22:01.790Z,22.63
2023-02-15T12:27:06.135Z,22.83
2023-02-15T12:32:14.092Z,23.33
2023-02-15T12:37:21.945Z,23.47
2023-02-15T12:42:25.488Z,24.02
2023-02-15T12:47:31.990Z,24.01
2023-02-15T12:52:34.827Z,23.48
2023-02-15T12:57:37.687Z,23.86
2023-02-15T13:02:46.398Z,23.85
2023-02-15T13:07:52.007Z,23.62
2023-02-15T13:12:55.844Z,23.68
2023-02-15T13:18:01.127Z,24.02
2023-02-15T13:23:06.404Z,23.76
2023-02-15T13:28:14.347Z,23.35
2023-02-15T13:33:22.760Z,23.39
2023-02-15T13:38:39.939Z,23.29
2023-02-15T13:43:49.013Z,23.66
2023-02-15T13:49:01.559Z,23.81
2023-02-15T13:54:14.044Z,23.32
2023-02-15T13:59:30.141Z,23.53
2023-02-15T14:04:53.741Z,23.07
2023-02-15T14:10:02.968Z,22.82
2023-02-15T14:15:16.029Z,23.21
2023-02-15T14:20:22.553Z,23.21
2023-02-15T14:25:30.104Z,23.62
2023-02-15T14:30:34.927Z,23.06
2023-02-15T14:35:39.386Z,22.98
2023-02-15T14:41:04.116Z,22.91
2023-02-15T14:46:12.254Z,23.05
2023-02-15T14:51:29.966Z,23.64
2023-02-15T14:56:34.328Z,23.40
2023-02-15T15:01:38.663Z,23.19
2023-02-15T15:06:43.141Z,22.96
2023-02-15T15:11:48.906Z,22.52
2023-02-15T15:16:53.369Z,22.86
2023-02-15T15:21:57.605Z,22.69
2023-02-15T15:27:15.309Z,22.65
2023-02-15T15:32:23.584Z,22.44
2023-02-15T15:37:39.199Z,22.21
2023-02-15T15:42:50.352Z,22.41
2023-02-15T15:48:06.986Z,22.39
2023-02-15T15:53:19.317Z,21.96
2023-02-15T15:58:22.219Z,22.08
2023-02-15T16:03:27.483Z,21.54
2023-02-15T16:08:32.154Z,21.54
2023-02-15T16:13:35.708Z,21.47
2023-02-15T16:18:43.528Z,21.21
2023-02-15T16:24:04.435Z,21.15
2023-02-15T16:29:15.670Z,21.00
2023-02-15T16:34:22.636Z,21.01
2023-02-15T16:39:26.825Z,20.85
2023-02-15T16:44:35.056Z,20.61
2023-02-15T16:49:42.250Z,20.66
2023-02-15T16:54:46.431Z,20.33
2023-02-15T16:59:51.615Z,20.33
2023-02-15T17:05:11.889Z,20.14
2023-02-15T17:10:34.162Z,20.03
2023-02-15T17:15:39.359Z,20.03
2023-02-15T17:20:46.566Z,19.78
2023-02-15T17:25:50.727Z,19.75
2023-02-15T17:30:55.933Z,19.66
2023-02-15T17:36:10.180Z,19.47
2023-02-15T17:41:14.359Z,19.24
2023-02-15T17:46:23.576Z,19.04
2023-02-15T17:51:29.753Z,18.73
2023-02-15T17:56:33.975Z,18.44
2023-02-15T18:01:56.230Z,18.19
2023-02-15T18:07:19.505Z,17.95
2023-02-15T18:12:23.552Z,17.74
2023-02-15T18:17:29.304Z,17.54
2023-02-15T18:22:33.625Z,17.38
2023-02-15T18:27:36.464Z,17.17
2023-02-15T18:32:40.320Z,17.06
2023-02-15T18:37:44.825Z,16.81
2023-02-15T18:42:49.108Z,16.74
2023-02-15T18:47:51.945Z,16.63
2023-02-15T18:52:56.334Z,16.34
2023-02-15T18:57:59.734Z,16.02
2023-02-15T19:03:03.388Z,15.83
2023-02-15T19:08:14.633Z,15.68
2023-02-15T19:13:18.895Z,15.66
2023-02-15T19:18:21.770Z,15.73
2023-02-15T19:23:26.832Z,15.57
2023-02-15T19:28:32.461Z,15.65
2023-02-15T19:33:35.791Z,15.41
2023-02-15T19:38:41.249Z,15.12
2023-02-15T19:43:44.133Z,15.00
2023-02-15T19:48:47.412Z,14.75
2023-02-15T19:53:52.700Z,14.60
2023-02-15T19:58:57.856Z,14.59
2023-02-15T20:04:00.713Z,14.56
2023-02-15T20:09:05.129Z,14.65
2023-02-15T20:14:12.327Z,14.45
2023-02-15T20:19:15.295Z,14.49
2023-02-15T20:24:21.156Z,14.51
2023-02-15T20:29:24.023Z,14.45
2023-02-15T20:34:26.857Z,14.25
2023-02-15T20:39:31.255Z,13.78
2023-02-15T20:44:35.322Z,14.06
2023-02-15T20:49:38.670Z,13.93
2023-02-15T20:54:43.300Z,14.08
2023-02-15T20:59:46.175Z,14.09
2023-02-15T21:04:49.077Z,13.93
2023-02-15T21:09:54.360Z,13.60
2023-02-15T21:14:57.318Z,13.48
2023-02-15T21:20:00.193Z,13.63
2023-02-15T21:25:04.512Z,13.55
2023-02-15T21:30:12.176Z,13.44
2023-02-15T21:35:15.498Z,13.37
2023-02-15T21:40:21.594Z,13.19
2023-02-15T21:45:41.774Z,12.86
2023-02-15T21:51:02.804Z,12.76
2023-02-15T21:56:08.003Z,12.75
2023-02-15T22:01:17.641Z,12.35
2023-02-15T22:06:20.536Z,12.13
2023-02-15T22:11:24.766Z,11.97
2023-02-15T22:16:27.678Z,11.92
2023-02-15T22:21:31.542Z,11.90
2023-02-15T22:26:36.079Z,11.78
2023-02-15T22:31:38.999Z,11.81
2023-02-15T22:36:41.928Z,11.90
2023-02-15T22:41:46.248Z,11.68
2023-02-15T22:46:49.103Z,11.64
2023-02-15T22:51:52.312Z,11.49
2023-02-15T22:56:56.658Z,11.36
2023-02-15T23:01:59.583Z,11.46
2023-02-15T23:07:02.416Z,11.24
2023-02-15T23:12:14.194Z,11.18
2023-02-15T23:17:17.041Z,11.02
2023-02-15T23:22:20.667Z,10.97
2023-02-15T23:27:42.467Z,10.98
2023-02-15T23:32:45.413Z,10.99
2023-02-15T23:37:48.543Z,10.87
2023-02-15T23:42:52.893Z,10.86
2023-02-15T23:48:13.435Z,10.80
2023-02-15T23:53:16.341Z,10.82
2023-02-15T23:58:21.891Z,11.07
